createdAt,value
2019-02-03T00:01:34.015Z,20.40
2019-02-03T00:04:01.814Z,20.33
2019-02-03T00:06:32.370Z,21.47
2019-02-03T00:09:00.369Z,20.37
2019-02-03T00:11:28.004Z,20.30
2019-02-03T00:13:55.863Z,22.43
2019-02-03T00:16:25.010Z,21.63
2019-02-03T00:18:54.260Z,25.33
2019-02-03T00:21:22.025Z,25.50
2019-02-03T00:23:49.898Z,27.40
2019-02-03T00:26:18.638Z,25.70
2019-02-03T00:28:46.459Z,28.13
2019-02-03T00:31:14.131Z,26.77
2019-02-03T00:33:42.229Z,23.47
2019-02-03T00:36:13.011Z,25.53
2019-02-03T00:38:41.323Z,26.57
2019-02-03T00:41:09.276Z,26.03
2019-02-03T00:43:39.240Z,26.00
2019-02-03T00:46:07.094Z,25.53
2019-02-03T00:48:34.702Z,25.10
2019-02-03T00:51:02.842Z,26.10
2019-02-03T00:53:30.946Z,26.50
2019-02-03T00:55:58.822Z,25.77
2019-02-03T00:58:26.483Z,28.63
2019-02-03T01:00:54.361Z,26.07
2019-02-03T01:03:22.084Z,28.13
2019-02-03T01:05:49.808Z,27.20
2019-02-03T01:08:17.569Z,27.23
2019-02-03T01:10:45.220Z,26.10
2019-02-03T01:13:12.917Z,25.30
2019-02-03T01:15:40.728Z,25.67
2019-02-03T01:18:08.351Z,25.33
2019-02-03T01:20:35.926Z,25.67
2019-02-03T01:23:03.928Z,25.37
2019-02-03T01:25:31.587Z,25.97
2019-02-03T01:27:59.301Z,23.93
2019-02-03T01:30:27.242Z,24.83
2019-02-03T01:32:54.829Z,25.50
2019-02-03T01:35:22.691Z,25.27
2019-02-03T01:37:52.663Z,26.40
2019-02-03T01:40:20.379Z,26.40
2019-02-03T01:42:49.824Z,26.57
2019-02-03T01:45:19.168Z,25.90
2019-02-03T01:47:47.094Z,24.70
2019-02-03T01:50:14.964Z,26.17
2019-02-03T01:52:43.491Z,28.70
2019-02-03T01:55:14.024Z,27.93
2019-02-03T01:57:41.602Z,27.70
2019-02-03T02:00:20.533Z,27.60
2019-02-03T02:02:48.188Z,28.30
2019-02-03T02:05:16.312Z,28.37
2019-02-03T02:07:51.112Z,27.93
2019-02-03T02:10:16.087Z,28.57
2019-02-03T02:12:43.663Z,29.37
2019-02-03T02:15:13.467Z,27.40
2019-02-03T02:17:41.099Z,27.87
2019-02-03T02:20:19.921Z,29.73
2019-02-03T02:22:47.322Z,29.43
2019-02-03T02:25:15.372Z,29.13
2019-02-03T02:27:43.022Z,30.63
2019-02-03T02:30:12.622Z,27.37
2019-02-03T02:32:40.803Z,29.67
2019-02-03T02:35:09.212Z,30.27
2019-02-03T02:37:36.738Z,31.40
2019-02-03T02:40:13.165Z,29.83
2019-02-03T02:42:35.888Z,27.27
2019-02-03T02:45:04.650Z,28.03
2019-02-03T02:47:32.523Z,26.87
2019-02-03T02:50:02.318Z,28.57
2019-02-03T02:52:29.915Z,26.83
2019-02-03T02:55:00.426Z,30.73
2019-02-03T02:57:28.544Z,31.20
2019-02-03T02:59:56.142Z,31.47
2019-02-03T03:02:23.938Z,31.70
2019-02-03T03:04:51.599Z,31.70
2019-02-03T03:07:19.348Z,32.10
2019-02-03T03:09:47.036Z,32.60
2019-02-03T03:12:14.924Z,33.17
2019-02-03T03:14:44.563Z,31.70
2019-02-03T03:17:15.270Z,31.90
2019-02-03T03:19:43.033Z,29.73
2019-02-03T03:22:10.654Z,27.87
2019-02-03T03:24:38.270Z,28.67
2019-02-03T03:27:05.974Z,28.80
2019-02-03T03:29:33.969Z,28.90
2019-02-03T03:32:01.932Z,28.40
2019-02-03T03:34:30.658Z,27.80
2019-02-03T03:36:58.263Z,28.27
2019-02-03T03:39:25.924Z,25.47
2019-02-03T03:41:53.803Z,26.13
2019-02-03T03:44:23.929Z,28.03
2019-02-03T03:46:51.752Z,27.40
2019-02-03T03:49:19.459Z,28.50
2019-02-03T03:51:47.070Z,27.83
2019-02-03T03:54:14.753Z,28.83
2019-02-03T03:56:42.392Z,26.50
2019-02-03T03:59:10.104Z,26.53
2019-02-03T04:01:38.119Z,24.93
2019-02-03T04:04:05.885Z,26.67
2019-02-03T04:06:33.448Z,28.93
2019-02-03T04:09:01.486Z,28.70
2019-02-03T04:11:29.637Z,25.97
2019-02-03T04:13:57.330Z,28.73
2019-02-03T04:16:24.943Z,22.93
2019-02-03T04:18:52.904Z,29.50
2019-02-03T04:21:20.543Z,28.30
2019-02-03T04:23:48.189Z,28.03
2019-02-03T04:26:15.937Z,27.93
2019-02-03T04:28:43.543Z,28.07
2019-02-03T04:31:11.213Z,27.40
2019-02-03T04:33:39.338Z,28.73
2019-02-03T04:36:07.226Z,28.63
2019-02-03T04:38:37.487Z,28.57
2019-02-03T04:41:08.059Z,30.27
2019-02-03T04:43:35.717Z,29.40
2019-02-03T04:46:03.339Z,29.50
2019-02-03T04:48:31.305Z,29.77
2019-02-03T04:50:59.024Z,29.17
2019-02-03T04:53:27.208Z,28.63
2019-02-03T04:55:56.206Z,30.07
2019-02-03T04:58:25.180Z,30.20
2019-02-03T05:00:52.762Z,29.67
2019-02-03T05:03:21.223Z,29.77
2019-02-03T05:05:51.398Z,29.60
2019-02-03T05:08:19.011Z,28.30
2019-02-03T05:10:47.304Z,29.77
2019-02-03T05:13:14.913Z,28.93
2019-02-03T05:15:42.516Z,27.93
2019-02-03T05:18:10.470Z,27.77
2019-02-03T05:20:38.117Z,27.53
2019-02-03T05:23:05.910Z,29.20
2019-02-03T05:25:34.882Z,27.07
2019-02-03T05:28:02.587Z,24.73
2019-02-03T05:30:32.246Z,26.33
2019-02-03T05:33:02.180Z,25.50
2019-02-03T05:35:29.853Z,28.37
2019-02-03T05:37:57.476Z,26.77
2019-02-03T05:40:25.113Z,23.93
2019-02-03T05:42:52.765Z,26.53
2019-02-03T05:45:20.988Z,27.23
2019-02-03T05:47:50.157Z,26.27
2019-02-03T05:50:20.314Z,26.63
2019-02-03T05:52:47.929Z,27.03
2019-02-03T05:55:16.171Z,25.00
2019-02-03T05:57:43.793Z,25.90
2019-02-03T06:00:18.733Z,25.53
2019-02-03T06:02:46.330Z,24.40
2019-02-03T06:05:15.448Z,24.17
2019-02-03T06:07:43.218Z,24.57
2019-02-03T06:10:12.959Z,25.90
2019-02-03T06:12:40.617Z,23.63
2019-02-03T06:15:09.260Z,25.07
2019-02-03T06:17:36.982Z,24.43
2019-02-03T06:20:07.470Z,22.97
2019-02-03T06:22:35.379Z,21.60
2019-02-03T06:25:03.598Z,23.40
2019-02-03T06:27:33.034Z,22.90
2019-02-03T06:30:00.906Z,22.93
2019-02-03T06:32:28.490Z,21.80
2019-02-03T06:34:56.064Z,21.57
2019-02-03T06:37:23.684Z,21.27
2019-02-03T06:39:51.350Z,20.90
2019-02-03T06:42:21.692Z,20.77
2019-02-03T06:44:49.300Z,22.00
2019-02-03T06:47:21.461Z,22.47
2019-02-03T06:49:49.057Z,20.40
2019-02-03T06:52:18.632Z,20.77
2019-02-03T06:54:47.450Z,20.93
2019-02-03T06:57:15.041Z,21.47
2019-02-03T06:59:50.488Z,19.67
2019-02-03T07:02:12.729Z,20.87
2019-02-03T07:04:40.364Z,21.07
2019-02-03T07:07:09.076Z,21.43
2019-02-03T07:09:38.501Z,20.43
2019-02-03T07:12:07.377Z,20.30
2019-02-03T07:14:35.750Z,21.00
2019-02-03T07:17:03.541Z,20.20
2019-02-03T07:19:32.957Z,20.10
2019-02-03T07:22:00.553Z,19.57
2019-02-03T07:24:28.120Z,19.20
2019-02-03T07:26:55.754Z,19.20
2019-02-03T07:29:23.658Z,17.63
2019-02-03T07:31:51.319Z,18.37
2019-02-03T07:34:19.159Z,18.00
2019-02-03T07:36:48.484Z,16.57
2019-02-03T07:39:16.029Z,16.87
2019-02-03T07:41:43.682Z,16.90
2019-02-03T07:44:11.287Z,18.17
2019-02-03T07:46:38.942Z,18.97
2019-02-03T07:49:06.638Z,18.50
2019-02-03T07:51:34.523Z,16.93
2019-02-03T07:54:08.616Z,16.87
2019-02-03T07:56:39.526Z,16.07
2019-02-03T07:59:11.994Z,15.30
2019-02-03T08:01:40.651Z,17.57
2019-02-03T08:04:08.229Z,16.40
2019-02-03T08:06:36.100Z,16.83
2019-02-03T08:09:07.642Z,15.73
2019-02-03T08:11:35.240Z,15.77
2019-02-03T08:14:03.720Z,14.97
2019-02-03T08:16:31.582Z,13.73
2019-02-03T08:19:02.470Z,14.13
2019-02-03T08:21:30.352Z,13.00
2019-02-03T08:24:00.780Z,14.00
2019-02-03T08:26:28.493Z,13.37
2019-02-03T08:28:56.380Z,13.93
2019-02-03T08:31:24.469Z,13.27
2019-02-03T08:33:57.627Z,13.10
2019-02-03T08:36:25.482Z,12.50
2019-02-03T08:38:53.097Z,13.07
2019-02-03T08:41:23.169Z,12.93
2019-02-03T08:43:50.975Z,13.53
2019-02-03T08:46:18.561Z,12.53
2019-02-03T08:48:46.227Z,13.23
2019-02-03T08:51:17.453Z,14.13
2019-02-03T08:53:45.011Z,13.97
2019-02-03T08:56:12.767Z,13.20
2019-02-03T08:58:40.806Z,14.47
2019-02-03T09:01:08.433Z,13.80
2019-02-03T09:03:36.289Z,15.47
2019-02-03T09:06:04.369Z,13.53
2019-02-03T09:08:32.196Z,14.07
2019-02-03T09:10:59.829Z,14.63
2019-02-03T09:13:28.000Z,14.87
2019-02-03T09:15:56.083Z,14.47
2019-02-03T09:18:25.611Z,15.67
2019-02-03T09:20:55.972Z,15.03
2019-02-03T09:23:25.348Z,14.57
2019-02-03T09:25:54.595Z,15.97
2019-02-03T09:28:22.616Z,15.63
2019-02-03T09:30:51.112Z,15.80
2019-02-03T09:33:18.787Z,15.33
2019-02-03T09:35:47.469Z,15.83
2019-02-03T09:38:17.321Z,16.00
2019-02-03T09:40:59.323Z,15.43
2019-02-03T09:43:17.498Z,15.10
2019-02-03T09:45:46.439Z,16.67
2019-02-03T09:48:14.428Z,16.00
2019-02-03T09:50:42.600Z,16.03
2019-02-03T09:53:10.497Z,16.73
2019-02-03T09:55:40.995Z,14.97
2019-02-03T09:58:11.515Z,14.93
2019-02-03T10:00:39.127Z,15.17
2019-02-03T10:03:08.659Z,15.03
2019-02-03T10:05:38.598Z,13.87
2019-02-03T10:08:06.495Z,14.63
2019-02-03T10:10:35.988Z,14.93
2019-02-03T10:13:04.672Z,14.47
2019-02-03T10:15:33.601Z,15.27
2019-02-03T10:18:09.080Z,13.93
2019-02-03T10:20:37.366Z,13.17
2019-02-03T10:23:05.195Z,11.33
2019-02-03T10:25:33.247Z,13.00
2019-02-03T10:28:00.890Z,12.87
2019-02-03T10:30:29.085Z,13.03
2019-02-03T10:32:57.662Z,11.60
2019-02-03T10:35:26.842Z,11.50
2019-02-03T10:37:54.853Z,11.70
2019-02-03T10:40:25.552Z,11.77
2019-02-03T10:42:54.212Z,11.50
2019-02-03T10:45:22.734Z,11.43
2019-02-03T10:47:51.320Z,10.47
2019-02-03T10:50:21.081Z,10.73
2019-02-03T10:52:49.278Z,9.83
2019-02-03T10:55:17.371Z,9.87
2019-02-03T10:57:48.116Z,9.23
2019-02-03T11:00:19.003Z,9.27
2019-02-03T11:02:46.739Z,10.73
2019-02-03T11:05:20.724Z,10.20
2019-02-03T11:07:48.612Z,10.80
2019-02-03T11:10:23.620Z,10.30
2019-02-03T11:12:51.621Z,8.87
2019-02-03T11:15:19.839Z,8.73
2019-02-03T11:17:48.308Z,9.10
2019-02-03T11:20:18.675Z,9.57
2019-02-03T11:22:46.441Z,9.90
2019-02-03T11:25:15.725Z,8.60
2019-02-03T11:27:43.723Z,10.13
2019-02-03T11:30:15.225Z,10.70
2019-02-03T11:32:43.273Z,11.70
2019-02-03T11:35:23.170Z,10.07
2019-02-03T11:37:52.045Z,12.00
2019-02-03T11:40:22.518Z,10.40
2019-02-03T11:42:56.278Z,10.63
2019-02-03T11:45:30.757Z,10.80
2019-02-03T11:47:59.711Z,10.60
2019-02-03T11:50:30.469Z,12.53
2019-02-03T11:52:58.247Z,10.40
2019-02-03T11:55:28.495Z,11.50
2019-02-03T11:57:56.134Z,10.43
2019-02-03T12:00:26.554Z,9.53
2019-02-03T12:02:54.434Z,10.43
2019-02-03T12:05:23.507Z,10.33
2019-02-03T12:07:51.585Z,10.07
2019-02-03T12:10:21.961Z,9.50
2019-02-03T12:12:49.697Z,8.53
2019-02-03T12:15:18.064Z,9.33
2019-02-03T12:17:46.009Z,8.80
2019-02-03T12:20:15.271Z,9.03
2019-02-03T12:22:44.823Z,7.93
2019-02-03T12:25:16.203Z,8.00
2019-02-03T12:27:43.804Z,8.27
2019-02-03T12:30:15.039Z,8.23
2019-02-03T12:32:43.186Z,8.10
2019-02-03T12:35:12.809Z,8.50
2019-02-03T12:37:41.578Z,8.90
2019-02-03T12:40:14.718Z,9.60
2019-02-03T12:42:43.621Z,8.10
2019-02-03T12:45:13.219Z,7.60
2019-02-03T12:47:40.946Z,8.13
2019-02-03T12:50:10.739Z,8.23
2019-02-03T12:52:38.622Z,7.27
2019-02-03T12:55:08.054Z,7.93
2019-02-03T12:57:46.558Z,8.30
2019-02-03T13:00:22.260Z,7.57
2019-02-03T13:02:56.330Z,8.10
2019-02-03T13:05:28.686Z,8.57
2019-02-03T13:07:57.187Z,7.90
2019-02-03T13:10:26.773Z,8.30
2019-02-03T13:12:54.635Z,8.33
2019-02-03T13:15:46.176Z,8.57
2019-02-03T13:18:17.102Z,8.33
2019-02-03T13:20:45.512Z,9.13
2019-02-03T13:23:19.378Z,8.13
2019-02-03T13:25:50.300Z,8.60
2019-02-03T13:28:20.451Z,8.40
2019-02-03T13:30:50.046Z,8.70
2019-02-03T13:33:18.067Z,7.30
2019-02-03T13:35:46.076Z,7.63
2019-02-03T13:38:14.318Z,7.87
2019-02-03T13:40:43.450Z,7.70
2019-02-03T13:43:23.383Z,7.97
2019-02-03T13:45:53.843Z,7.43
2019-02-03T13:48:26.304Z,7.13
2019-02-03T13:50:54.828Z,6.83
2019-02-03T13:53:26.598Z,6.63
2019-02-03T13:55:54.843Z,7.17
2019-02-03T13:58:36.532Z,6.83
2019-02-03T14:01:00.352Z,6.80
2019-02-03T14:03:28.205Z,6.83
2019-02-03T14:05:59.111Z,7.30
2019-02-03T14:08:30.133Z,7.10
2019-02-03T14:10:57.881Z,7.20
2019-02-03T14:13:27.838Z,7.00
2019-02-03T14:15:56.502Z,6.80
2019-02-03T14:18:25.413Z,6.90
2019-02-03T14:20:53.001Z,6.80
2019-02-03T14:23:20.668Z,7.10
2019-02-03T14:25:49.115Z,7.13
2019-02-03T14:28:17.460Z,7.10
2019-02-03T14:30:45.820Z,6.73
2019-02-03T14:33:13.752Z,10.80
2019-02-03T14:35:42.136Z,9.47
2019-02-03T14:38:12.833Z,7.50
2019-02-03T14:40:43.093Z,8.37
2019-02-03T14:43:12.782Z,8.93
2019-02-03T14:45:45.495Z,7.87
2019-02-03T14:48:29.502Z,8.20
2019-02-03T14:51:02.174Z,9.40
2019-02-03T14:53:35.330Z,8.97
2019-02-03T14:56:03.535Z,10.27
2019-02-03T14:58:36.355Z,11.07
2019-02-03T15:01:07.786Z,11.53
2019-02-03T15:03:44.726Z,11.43
2019-02-03T15:06:12.821Z,10.30
2019-02-03T15:08:44.691Z,10.87
2019-02-03T15:11:13.640Z,8.77
2019-02-03T15:13:50.652Z,8.50
2019-02-03T15:16:23.254Z,9.27
2019-02-03T15:18:51.247Z,8.67
2019-02-03T15:21:21.748Z,8.73
2019-02-03T15:23:53.267Z,13.70
2019-02-03T15:26:24.530Z,9.27
2019-02-03T15:28:52.582Z,10.43
2019-02-03T15:31:26.015Z,8.37
2019-02-03T15:33:54.637Z,7.40
2019-02-03T15:36:25.745Z,8.13
2019-02-03T15:38:53.562Z,7.70
2019-02-03T15:41:21.202Z,7.43
2019-02-03T15:43:53.347Z,6.50
2019-02-03T15:46:22.704Z,7.50
2019-02-03T15:48:50.360Z,7.73
2019-02-03T15:51:18.231Z,7.60
2019-02-03T15:53:45.872Z,6.43
2019-02-03T15:56:13.752Z,7.17
2019-02-03T15:58:44.085Z,7.23
2019-02-03T16:01:13.859Z,7.70
2019-02-03T16:03:41.768Z,9.63
2019-02-03T16:06:11.443Z,8.07
2019-02-03T16:08:41.306Z,7.47
2019-02-03T16:11:09.476Z,7.10
2019-02-03T16:13:38.341Z,9.70
2019-02-03T16:16:11.281Z,7.40
2019-02-03T16:18:43.205Z,6.97
2019-02-03T16:21:13.830Z,8.40
2019-02-03T16:23:52.268Z,6.90
2019-02-03T16:26:21.514Z,29.57
2019-02-03T16:28:51.893Z,27.50
2019-02-03T16:31:19.597Z,18.40
2019-02-03T16:33:47.262Z,55.40
2019-02-03T16:36:24.725Z,10.23
2019-02-03T16:38:52.463Z,6.40
2019-02-03T16:41:20.279Z,9.60
2019-02-03T16:43:49.399Z,6.33
2019-02-03T16:46:17.626Z,5.40
2019-02-03T16:48:48.630Z,4.87
2019-02-03T16:51:16.571Z,6.33
2019-02-03T16:53:51.114Z,6.97
2019-02-03T16:56:19.217Z,27.93
2019-02-03T16:58:46.844Z,25.90
2019-02-03T17:01:22.897Z,5.77
2019-02-03T17:03:54.554Z,6.53
2019-02-03T17:06:22.430Z,7.20
2019-02-03T17:08:55.171Z,11.10
2019-02-03T17:11:23.869Z,16.30
2019-02-03T17:14:00.194Z,21.50
2019-02-03T17:16:21.433Z,20.47
2019-02-03T17:18:59.833Z,16.57
2019-02-03T17:21:33.758Z,13.10
2019-02-03T17:24:03.628Z,15.33
2019-02-03T17:26:31.474Z,22.17
2019-02-03T17:29:17.906Z,17.53
2019-02-03T17:31:47.372Z,19.03
2019-02-03T17:34:20.435Z,13.80
2019-02-03T17:36:51.076Z,9.23
2019-02-03T17:39:18.774Z,9.60
2019-02-03T17:41:47.002Z,5.93
2019-02-03T17:44:19.856Z,21.50
2019-02-03T17:46:52.287Z,20.33
2019-02-03T17:49:19.926Z,19.40
2019-02-03T17:51:51.070Z,39.63
2019-02-03T17:54:18.875Z,24.83
2019-02-03T17:56:46.952Z,41.40
2019-02-03T17:59:15.159Z,48.37
2019-02-03T18:01:52.259Z,13.10
2019-02-03T18:04:37.320Z,8.63
2019-02-03T18:07:05.358Z,5.23
2019-02-03T18:09:35.451Z,6.00
2019-02-03T18:12:03.700Z,7.03
2019-02-03T18:14:31.467Z,7.90
2019-02-03T18:17:02.243Z,5.50
2019-02-03T18:19:32.271Z,6.43
2019-02-03T18:22:05.359Z,11.20
2019-02-03T18:24:47.621Z,11.10
2019-02-03T18:27:24.426Z,7.93
2019-02-03T18:29:55.107Z,9.70
2019-02-03T18:32:25.481Z,7.53
2019-02-03T18:34:53.298Z,10.10
2019-02-03T18:37:21.115Z,8.10
2019-02-03T18:39:49.840Z,6.57
2019-02-03T18:42:26.082Z,5.27
2019-02-03T18:44:56.546Z,5.30
2019-02-03T18:47:28.031Z,5.20
2019-02-03T18:49:57.651Z,6.03
2019-02-03T18:52:30.342Z,6.23
2019-02-03T18:54:58.239Z,5.40
2019-02-03T18:57:36.888Z,5.70
2019-02-03T19:00:10.693Z,5.13
2019-02-03T19:02:38.356Z,34.60
2019-02-03T19:05:08.231Z,21.27
2019-02-03T19:07:36.565Z,60.97
2019-02-03T19:10:06.390Z,27.97
2019-02-03T19:12:39.881Z,9.37
2019-02-03T19:15:12.084Z,6.30
2019-02-03T19:17:40.491Z,6.33
2019-02-03T19:20:15.331Z,5.77
2019-02-03T19:22:45.059Z,5.70
2019-02-03T19:25:13.639Z,6.17
2019-02-03T19:27:47.750Z,5.93
2019-02-03T19:30:18.436Z,5.40
2019-02-03T19:32:51.990Z,6.53
2019-02-03T19:35:20.844Z,4.87
2019-02-03T19:37:57.142Z,9.80
2019-02-03T19:40:27.369Z,5.77
2019-02-03T19:43:10.529Z,7.83
2019-02-03T19:45:49.272Z,8.17
2019-02-03T19:48:21.461Z,5.73
2019-02-03T19:51:07.370Z,5.27
2019-02-03T19:53:35.549Z,5.93
2019-02-03T19:56:03.700Z,6.03
2019-02-03T19:58:31.405Z,4.83
2019-02-03T20:01:00.557Z,5.30
2019-02-03T20:03:33.105Z,6.00
2019-02-03T20:06:02.441Z,6.53
2019-02-03T20:08:33.100Z,5.27
2019-02-03T20:11:04.117Z,5.40
2019-02-03T20:13:50.617Z,5.10
2019-02-03T20:16:18.608Z,5.30
2019-02-03T20:18:50.949Z,5.17
2019-02-03T20:21:21.517Z,5.53
2019-02-03T20:23:53.500Z,5.97
2019-02-03T20:26:21.486Z,5.63
2019-02-03T20:28:49.278Z,6.50
2019-02-03T20:31:16.916Z,5.87
2019-02-03T20:33:44.595Z,5.27
2019-02-03T20:36:16.471Z,5.23
2019-02-03T20:38:45.881Z,6.23
2019-02-03T20:41:13.551Z,5.30
2019-02-03T20:43:44.351Z,7.67
2019-02-03T20:46:14.605Z,8.57
2019-02-03T20:48:49.831Z,10.30
2019-02-03T20:51:20.298Z,6.43
2019-02-03T20:53:50.255Z,6.30
2019-02-03T20:56:17.842Z,5.27
2019-02-03T20:58:51.613Z,10.00
2019-02-03T21:01:19.554Z,8.10
2019-02-03T21:03:48.629Z,5.83
2019-02-03T21:06:38.608Z,5.53
2019-02-03T21:09:11.979Z,8.20
2019-02-03T21:11:40.131Z,5.13
2019-02-03T21:14:07.810Z,5.20
2019-02-03T21:16:40.431Z,5.07
2019-02-03T21:19:12.539Z,6.33
2019-02-03T21:21:48.608Z,5.33
2019-02-03T21:24:16.802Z,6.50
2019-02-03T21:26:44.413Z,4.00
2019-02-03T21:29:13.851Z,4.83
2019-02-03T21:31:43.118Z,4.50
2019-02-03T21:34:11.222Z,5.37
2019-02-03T21:36:41.518Z,4.80
2019-02-03T21:39:10.219Z,4.93
2019-02-03T21:41:40.873Z,6.87
2019-02-03T21:44:08.667Z,5.10
2019-02-03T21:46:38.686Z,7.00
2019-02-03T21:49:08.383Z,5.63
2019-02-03T21:51:36.245Z,6.97
2019-02-03T21:54:07.045Z,5.90
2019-02-03T21:56:34.859Z,6.00
2019-02-03T21:59:03.788Z,5.70
2019-02-03T22:01:33.995Z,5.13
2019-02-03T22:04:02.073Z,5.17
2019-02-03T22:06:31.067Z,5.00
2019-02-03T22:09:00.198Z,4.87
2019-02-03T22:11:27.808Z,4.37
2019-02-03T22:13:59.946Z,5.40
2019-02-03T22:16:29.773Z,4.63
2019-02-03T22:18:57.754Z,5.20
2019-02-03T22:21:25.354Z,5.07
2019-02-03T22:23:53.434Z,6.20
2019-02-03T22:26:21.333Z,7.40
2019-02-03T22:28:50.756Z,5.50
2019-02-03T22:31:21.363Z,4.77
2019-02-03T22:33:49.026Z,4.67
2019-02-03T22:36:16.890Z,4.33
2019-02-03T22:38:44.907Z,4.97
2019-02-03T22:41:15.628Z,4.95
2019-02-03T22:43:46.097Z,5.15
2019-02-03T22:46:14.048Z,4.90
2019-02-03T22:48:41.720Z,4.87
2019-02-03T22:51:09.646Z,4.83
2019-02-03T22:53:37.637Z,4.87
2019-02-03T22:56:05.468Z,4.90
2019-02-03T22:58:33.234Z,5.40
2019-02-03T23:01:16.507Z,4.90
2019-02-03T23:04:27.314Z,5.33
2019-02-03T23:06:57.020Z,5.53
2019-02-03T23:09:33.547Z,5.50
2019-02-03T23:12:02.864Z,5.17
2019-02-03T23:14:33.501Z,5.63
2019-02-03T23:17:01.297Z,6.13
2019-02-03T23:19:29.103Z,7.90
2019-02-03T23:22:08.945Z,8.33
2019-02-03T23:24:37.126Z,7.73
2019-02-03T23:27:05.143Z,7.90
2019-02-03T23:29:33.773Z,5.97
2019-02-03T23:32:01.745Z,6.17
2019-02-03T23:34:33.791Z,5.80
2019-02-03T23:37:02.455Z,5.70
2019-02-03T23:39:33.359Z,6.63
2019-02-03T23:42:01.082Z,7.10
2019-02-03T23:44:29.074Z,7.77
2019-02-03T23:46:56.986Z,7.57
2019-02-03T23:49:26.391Z,8.10
2019-02-03T23:51:55.340Z,8.18
2019-02-03T23:54:24.990Z,7.75
2019-02-03T23:56:53.363Z,7.47
2019-02-03T23:59:21.523Z,7.85
